createdAt,value
2023-03-30T00:00:51.779Z,98.11
2023-03-30T00:03:24.199Z,97.88
2023-03-30T00:05:56.842Z,97.61
2023-03-30T00:08:28.769Z,97.65
2023-03-30T00:11:04.190Z,97.00
2023-03-30T00:13:35.417Z,97.39
2023-03-30T00:16:05.805Z,97.18
2023-03-30T00:18:39.627Z,96.97
2023-03-30T00:21:11.313Z,97.12
2023-03-30T00:23:42.338Z,97.22
2023-03-30T00:26:13.258Z,97.01
2023-03-30T00:28:43.070Z,97.03
2023-03-30T00:31:13.501Z,97.26
2023-03-30T00:33:47.933Z,96.73
2023-03-30T00:36:18.006Z,96.51
2023-03-30T00:38:48.534Z,96.42
2023-03-30T00:41:19.296Z,96.02
2023-03-30T00:44:03.478Z,95.71
2023-03-30T00:46:33.884Z,95.83
2023-03-30T00:49:09.154Z,95.99
2023-03-30T00:51:41.856Z,96.04
2023-03-30T00:54:15.648Z,95.22
2023-03-30T00:56:46.311Z,95.37
2023-03-30T00:59:16.818Z,94.61
2023-03-30T01:01:50.299Z,93.91
2023-03-30T01:04:22.798Z,94.28
2023-03-30T01:06:52.747Z,94.13
2023-03-30T01:09:22.883Z,93.84
2023-03-30T01:11:52.715Z,93.39
2023-03-30T01:14:22.494Z,93.61
2023-03-30T01:17:01.659Z,93.79
2023-03-30T01:20:15.323Z,93.34
2023-03-30T01:23:15.909Z,93.77
2023-03-30T01:26:09.799Z,94.32
2023-03-30T01:28:48.414Z,94.21
2023-03-30T01:31:44.618Z,93.75
2023-03-30T01:34:53.018Z,93.68
2023-03-30T01:37:53.050Z,93.87
2023-03-30T01:40:32.385Z,94.92
2023-03-30T01:43:08.600Z,94.64
2023-03-30T01:45:47.295Z,94.82
2023-03-30T01:48:23.952Z,94.59
2023-03-30T01:50:57.478Z,94.56
2023-03-30T01:53:35.113Z,94.16
2023-03-30T01:56:15.665Z,94.17
2023-03-30T01:58:50.398Z,94.47
2023-03-30T02:01:23.329Z,94.13
2023-03-30T02:03:58.318Z,94.24
2023-03-30T02:06:38.968Z,93.42
2023-03-30T02:09:11.459Z,93.11
2023-03-30T02:11:47.639Z,93.10
2023-03-30T02:14:20.093Z,93.16
2023-03-30T02:16:52.159Z,92.81
2023-03-30T02:19:22.675Z,92.65
2023-03-30T02:21:53.119Z,93.27
2023-03-30T02:24:31.675Z,93.02
2023-03-30T02:27:04.849Z,92.96
2023-03-30T02:29:37.814Z,93.04
2023-03-30T02:32:08.615Z,92.46
2023-03-30T02:34:55.978Z,91.80
2023-03-30T02:37:45.513Z,91.74
2023-03-30T02:40:27.686Z,91.88
2023-03-30T02:43:13.415Z,91.61
2023-03-30T02:45:53.998Z,91.54
2023-03-30T02:48:36.402Z,91.03
2023-03-30T02:51:17.387Z,91.12
2023-03-30T02:54:26.644Z,91.40
2023-03-30T02:57:25.149Z,91.24
2023-03-30T03:00:07.616Z,90.66
2023-03-30T03:02:43.214Z,89.73
2023-03-30T03:05:27.684Z,87.70
2023-03-30T03:08:09.326Z,86.48
2023-03-30T03:10:39.369Z,85.50
2023-03-30T03:13:10.169Z,84.42
2023-03-30T03:15:45.760Z,84.35
2023-03-30T03:18:16.152Z,83.26
2023-03-30T03:20:46.339Z,83.15
2023-03-30T03:23:16.149Z,83.37
2023-03-30T03:25:52.547Z,83.06
2023-03-30T03:28:23.295Z,83.00
2023-03-30T03:31:03.932Z,83.13
2023-03-30T03:33:34.686Z,83.07
2023-03-30T03:36:12.338Z,82.37
2023-03-30T03:38:48.393Z,81.85
2023-03-30T03:41:19.422Z,81.39
2023-03-30T03:43:49.647Z,81.29
2023-03-30T03:46:25.014Z,81.33
2023-03-30T03:48:54.861Z,82.21
2023-03-30T03:51:24.732Z,81.95
2023-03-30T03:53:54.534Z,82.02
2023-03-30T03:56:25.372Z,81.98
2023-03-30T03:58:55.716Z,82.28
2023-03-30T04:01:30.158Z,82.33
2023-03-30T04:04:00.676Z,82.35
2023-03-30T04:06:30.581Z,82.24
2023-03-30T04:09:01.294Z,81.98
2023-03-30T04:11:49.811Z,81.68
2023-03-30T04:14:38.069Z,81.72
2023-03-30T04:17:28.987Z,81.27
2023-03-30T04:19:59.257Z,80.27
2023-03-30T04:22:53.584Z,80.19
2023-03-30T04:25:25.897Z,79.92
2023-03-30T04:28:22.074Z,79.95
2023-03-30T04:31:13.173Z,79.40
2023-03-30T04:34:12.088Z,79.39
2023-03-30T04:37:02.053Z,79.74
2023-03-30T04:39:57.800Z,79.71
2023-03-30T04:43:02.354Z,79.85
2023-03-30T04:45:52.192Z,79.33
2023-03-30T04:48:40.854Z,79.50
2023-03-30T04:51:42.804Z,79.15
2023-03-30T04:54:41.851Z,79.83
2023-03-30T04:57:24.246Z,79.63
2023-03-30T05:00:32.093Z,80.15
2023-03-30T05:03:23.018Z,79.38
2023-03-30T05:06:03.236Z,79.20
2023-03-30T05:08:48.595Z,78.67
2023-03-30T05:11:34.176Z,78.96
2023-03-30T05:14:19.664Z,79.07
2023-03-30T05:17:20.925Z,79.44
2023-03-30T05:19:59.569Z,79.26
2023-03-30T05:22:49.673Z,79.43
2023-03-30T05:25:40.574Z,79.39
2023-03-30T05:28:31.780Z,79.67
2023-03-30T05:31:25.515Z,79.88
2023-03-30T05:34:10.383Z,79.62
2023-03-30T05:37:05.356Z,79.80
2023-03-30T05:39:38.041Z,79.47
2023-03-30T05:42:28.850Z,79.41
2023-03-30T05:45:17.614Z,79.36
2023-03-30T05:48:01.283Z,78.96
2023-03-30T05:50:50.357Z,78.47
2023-03-30T05:53:32.851Z,78.62
2023-03-30T05:56:35.215Z,77.61
2023-03-30T05:59:35.965Z,76.37
2023-03-30T06:02:24.834Z,76.19
2023-03-30T06:05:01.761Z,75.20
2023-03-30T06:07:34.194Z,75.89
2023-03-30T06:10:04.385Z,76.13
2023-03-30T06:12:34.710Z,75.44
2023-03-30T06:15:09.682Z,73.45
2023-03-30T06:17:52.943Z,74.00
2023-03-30T06:20:24.719Z,74.33
2023-03-30T06:22:55.711Z,75.10
2023-03-30T06:25:27.776Z,75.69
2023-03-30T06:27:58.261Z,75.62
2023-03-30T06:30:31.393Z,75.32
2023-03-30T06:33:05.389Z,75.81
2023-03-30T06:35:46.779Z,75.77
2023-03-30T06:38:17.677Z,75.03
2023-03-30T06:40:47.917Z,75.47
2023-03-30T06:43:20.414Z,75.46
2023-03-30T06:46:12.794Z,75.80
2023-03-30T06:48:46.948Z,75.64
2023-03-30T06:51:39.245Z,76.00
2023-03-30T06:54:09.948Z,76.58
2023-03-30T06:56:43.272Z,76.76
2023-03-30T06:59:17.020Z,77.12
2023-03-30T07:02:08.128Z,76.75
2023-03-30T07:05:11.000Z,77.00
2023-03-30T07:07:53.562Z,76.35
2023-03-30T07:10:24.653Z,75.98
2023-03-30T07:12:54.809Z,76.06
2023-03-30T07:15:26.575Z,75.99
2023-03-30T07:17:58.998Z,75.76
2023-03-30T07:20:30.310Z,76.28
2023-03-30T07:23:16.734Z,76.38
2023-03-30T07:25:48.727Z,76.08
2023-03-30T07:28:27.236Z,76.96
2023-03-30T07:30:57.065Z,77.01
2023-03-30T07:33:29.971Z,77.09
2023-03-30T07:36:00.727Z,77.11
2023-03-30T07:38:31.198Z,76.65
2023-03-30T07:41:01.363Z,76.62
2023-03-30T07:43:32.179Z,76.59
2023-03-30T07:46:01.946Z,76.84
2023-03-30T07:48:39.249Z,76.54
2023-03-30T07:51:11.019Z,76.46
2023-03-30T07:53:50.295Z,74.37
2023-03-30T07:56:27.233Z,75.21
2023-03-30T07:59:01.006Z,75.46
2023-03-30T08:01:34.887Z,75.05
2023-03-30T08:04:39.756Z,74.80
2023-03-30T08:07:09.981Z,74.38
2023-03-30T08:09:40.970Z,74.82
2023-03-30T08:12:10.828Z,74.74
2023-03-30T08:14:43.455Z,75.09
2023-03-30T08:17:13.188Z,75.12
2023-03-30T08:19:45.818Z,75.88
2023-03-30T08:22:15.607Z,75.36
2023-03-30T08:24:45.578Z,75.20
2023-03-30T08:27:15.311Z,74.56
2023-03-30T08:29:45.082Z,74.87
2023-03-30T08:32:14.825Z,75.13
2023-03-30T08:34:47.469Z,74.67
2023-03-30T08:37:17.212Z,74.51
2023-03-30T08:39:46.949Z,75.00
2023-03-30T08:42:40.919Z,74.73
2023-03-30T08:45:12.976Z,74.04
2023-03-30T08:47:49.118Z,72.63
2023-03-30T08:50:33.099Z,72.15
2023-03-30T08:53:03.306Z,73.50
2023-03-30T08:55:37.916Z,74.63
2023-03-30T08:58:16.035Z,75.30
2023-03-30T09:00:50.123Z,75.92
2023-03-30T09:03:27.310Z,75.74
2023-03-30T09:06:07.872Z,74.40
2023-03-30T09:08:37.723Z,75.04
2023-03-30T09:11:15.097Z,74.79
2023-03-30T09:13:48.205Z,74.52
2023-03-30T09:16:23.894Z,74.02
2023-03-30T09:18:57.629Z,74.68
2023-03-30T09:21:32.378Z,74.36
2023-03-30T09:24:04.754Z,75.41
2023-03-30T09:26:43.820Z,75.70
2023-03-30T09:29:17.359Z,75.49
2023-03-30T09:31:51.518Z,74.93
2023-03-30T09:34:30.043Z,75.14
2023-03-30T09:37:07.727Z,74.08
2023-03-30T09:39:38.746Z,75.23
2023-03-30T09:42:17.891Z,76.39
2023-03-30T09:44:51.399Z,77.03
2023-03-30T09:47:27.978Z,76.89
2023-03-30T09:49:59.957Z,77.02
2023-03-30T09:52:37.368Z,77.44
2023-03-30T09:55:29.950Z,79.83
2023-03-30T09:58:17.626Z,83.15
2023-03-30T10:00:48.308Z,83.02
2023-03-30T10:03:24.390Z,83.22
2023-03-30T10:06:05.758Z,84.18
2023-03-30T10:08:44.944Z,85.46
2023-03-30T10:11:14.756Z,85.63
2023-03-30T10:13:46.343Z,87.02
2023-03-30T10:16:26.425Z,89.02
2023-03-30T10:18:58.000Z,91.32
2023-03-30T10:21:29.809Z,90.32
2023-03-30T10:24:08.321Z,90.88
2023-03-30T10:26:44.334Z,90.99
2023-03-30T10:29:16.520Z,91.19
2023-03-30T10:31:48.883Z,92.25
2023-03-30T10:34:21.326Z,91.66
2023-03-30T10:36:56.150Z,89.90
2023-03-30T10:39:33.008Z,88.88
2023-03-30T10:42:05.060Z,88.57
2023-03-30T10:44:38.216Z,86.50
2023-03-30T10:47:32.234Z,84.41
2023-03-30T10:50:10.979Z,84.33
2023-03-30T10:52:59.130Z,83.56
2023-03-30T10:55:38.344Z,81.02
2023-03-30T10:58:22.723Z,80.47
2023-03-30T11:01:09.119Z,81.34
2023-03-30T11:03:41.673Z,79.29
2023-03-30T11:06:17.441Z,80.08
2023-03-30T11:08:50.557Z,79.81
2023-03-30T11:11:26.309Z,75.79
2023-03-30T11:14:02.052Z,76.64
2023-03-30T11:16:45.204Z,72.88
2023-03-30T11:19:20.023Z,73.59
2023-03-30T11:21:57.986Z,73.22
2023-03-30T11:24:30.766Z,71.56
2023-03-30T11:27:09.794Z,70.08
2023-03-30T11:29:45.827Z,69.28
2023-03-30T11:32:26.661Z,69.48
2023-03-30T11:35:08.830Z,70.40
2023-03-30T11:37:45.305Z,69.94
2023-03-30T11:40:19.419Z,69.43
2023-03-30T11:42:52.305Z,69.69
2023-03-30T11:45:36.347Z,69.08
2023-03-30T11:48:20.190Z,68.00
2023-03-30T11:51:05.073Z,68.38
2023-03-30T11:53:40.456Z,68.79
2023-03-30T11:56:13.195Z,68.23
2023-03-30T11:58:50.398Z,65.84
2023-03-30T12:01:33.109Z,64.02
2023-03-30T12:04:10.869Z,63.11
2023-03-30T12:06:43.167Z,62.50
2023-03-30T12:09:26.670Z,60.80
2023-03-30T12:12:01.867Z,60.84
2023-03-30T12:15:04.853Z,60.83
2023-03-30T12:17:50.412Z,60.74
2023-03-30T12:20:31.657Z,61.16
2023-03-30T12:23:12.610Z,61.87
2023-03-30T12:25:52.421Z,62.45
2023-03-30T12:28:38.683Z,63.41
2023-03-30T12:31:19.915Z,62.59
2023-03-30T12:33:51.664Z,61.71
2023-03-30T12:36:27.406Z,64.68
2023-03-30T12:39:02.381Z,65.96
2023-03-30T12:41:44.811Z,65.79
2023-03-30T12:44:46.024Z,65.26
2023-03-30T12:47:35.906Z,65.57
2023-03-30T12:50:32.012Z,65.92
2023-03-30T12:53:15.042Z,65.04
2023-03-30T12:55:48.820Z,64.20
2023-03-30T12:58:58.437Z,64.12
2023-03-30T13:01:46.555Z,64.51
2023-03-30T13:04:22.543Z,64.93
2023-03-30T13:06:55.917Z,64.04
2023-03-30T13:09:35.898Z,62.96
2023-03-30T13:12:38.455Z,62.75
2023-03-30T13:15:34.802Z,62.12
2023-03-30T13:18:06.715Z,62.73
2023-03-30T13:20:39.852Z,62.51
2023-03-30T13:23:28.589Z,62.76
2023-03-30T13:26:08.444Z,62.66
2023-03-30T13:28:57.186Z,65.33
2023-03-30T13:31:44.325Z,63.83
2023-03-30T13:34:24.656Z,63.41
2023-03-30T13:37:03.709Z,61.48
2023-03-30T13:39:42.523Z,60.94
2023-03-30T13:42:38.018Z,60.45
2023-03-30T13:45:18.973Z,61.80
2023-03-30T13:48:00.581Z,61.11
2023-03-30T13:50:32.246Z,62.96
2023-03-30T13:53:11.100Z,61.30
2023-03-30T13:55:42.566Z,61.78
2023-03-30T13:58:18.310Z,61.45
2023-03-30T14:00:51.773Z,60.71
2023-03-30T14:03:37.416Z,60.41
2023-03-30T14:06:09.818Z,60.04
2023-03-30T14:08:45.174Z,61.19
2023-03-30T14:11:18.487Z,59.67
2023-03-30T14:13:52.361Z,60.34
2023-03-30T14:16:25.174Z,61.01
2023-03-30T14:18:56.601Z,60.28
2023-03-30T14:21:27.101Z,60.04
2023-03-30T14:23:59.695Z,58.28
2023-03-30T14:26:31.908Z,56.72
2023-03-30T14:29:05.361Z,57.49
2023-03-30T14:31:42.226Z,57.25
2023-03-30T14:34:29.172Z,56.78
2023-03-30T14:37:03.090Z,57.67
2023-03-30T14:39:41.192Z,56.83
2023-03-30T14:42:18.966Z,56.98
2023-03-30T14:44:51.589Z,56.93
2023-03-30T14:47:23.968Z,57.26
2023-03-30T14:49:56.130Z,58.80
2023-03-30T14:52:30.937Z,59.79
2023-03-30T14:55:08.526Z,59.84
2023-03-30T14:57:42.236Z,60.41
2023-03-30T15:00:21.029Z,60.89
2023-03-30T15:02:54.674Z,59.72
2023-03-30T15:05:26.983Z,60.76
2023-03-30T15:07:56.803Z,60.36
2023-03-30T15:10:36.890Z,60.35
2023-03-30T15:13:09.484Z,60.64
2023-03-30T15:15:39.359Z,62.28
2023-03-30T15:18:09.560Z,66.77
2023-03-30T15:20:39.496Z,70.04
2023-03-30T15:23:09.329Z,70.80
2023-03-30T15:25:42.060Z,70.19
2023-03-30T15:28:19.274Z,68.28
2023-03-30T15:30:53.533Z,66.50
2023-03-30T15:33:25.952Z,65.61
2023-03-30T15:35:56.652Z,65.86
2023-03-30T15:38:35.455Z,65.46
2023-03-30T15:41:12.164Z,65.80
2023-03-30T15:43:56.311Z,65.92
2023-03-30T15:46:28.173Z,66.14
2023-03-30T15:49:00.564Z,67.16
2023-03-30T15:51:36.160Z,67.29
2023-03-30T15:54:12.971Z,68.78
2023-03-30T15:56:51.067Z,66.38
2023-03-30T15:59:23.670Z,64.98
2023-03-30T16:01:56.469Z,64.13
2023-03-30T16:04:27.531Z,67.01
2023-03-30T16:06:57.945Z,68.67
2023-03-30T16:09:27.816Z,70.38
2023-03-30T16:12:01.340Z,71.47
2023-03-30T16:14:33.997Z,72.72
2023-03-30T16:17:04.580Z,73.27
2023-03-30T16:19:34.336Z,72.76
2023-03-30T16:22:04.047Z,73.74
2023-03-30T16:24:33.808Z,73.61
2023-03-30T16:27:06.212Z,73.98
2023-03-30T16:29:36.208Z,73.45
2023-03-30T16:32:06.094Z,73.94
2023-03-30T16:34:36.048Z,74.84
2023-03-30T16:37:06.227Z,74.45
2023-03-30T16:39:36.820Z,75.61
2023-03-30T16:42:09.222Z,76.89
2023-03-30T16:44:39.212Z,79.02
2023-03-30T16:47:09.039Z,81.11
2023-03-30T16:49:39.044Z,82.63
2023-03-30T16:52:08.995Z,82.70
2023-03-30T16:54:38.715Z,83.91
2023-03-30T16:57:12.793Z,85.00
2023-03-30T16:59:42.699Z,84.46
2023-03-30T17:02:18.185Z,84.28
2023-03-30T17:04:49.114Z,84.55
2023-03-30T17:07:18.836Z,84.53
2023-03-30T17:09:48.538Z,85.03
2023-03-30T17:12:20.843Z,84.94
2023-03-30T17:14:50.700Z,84.56
2023-03-30T17:17:20.444Z,84.58
2023-03-30T17:19:50.207Z,84.98
2023-03-30T17:22:19.941Z,85.64
2023-03-30T17:24:49.629Z,85.95
2023-03-30T17:27:22.327Z,86.47
2023-03-30T17:29:52.086Z,86.16
2023-03-30T17:32:21.910Z,86.28
2023-03-30T17:34:51.667Z,85.95
2023-03-30T17:37:21.389Z,85.97
2023-03-30T17:39:51.115Z,86.61
2023-03-30T17:42:23.490Z,86.96
2023-03-30T17:44:53.274Z,87.13
2023-03-30T17:47:23.012Z,87.14
2023-03-30T17:49:52.732Z,88.31
2023-03-30T17:52:22.477Z,87.99
2023-03-30T17:54:52.203Z,88.06
2023-03-30T17:57:24.642Z,87.47
2023-03-30T17:59:54.449Z,87.56
2023-03-30T18:02:24.219Z,88.36
2023-03-30T18:04:53.999Z,87.87
2023-03-30T18:07:23.756Z,88.19
2023-03-30T18:09:53.987Z,88.89
2023-03-30T18:12:26.343Z,89.60
2023-03-30T18:14:56.260Z,89.84
2023-03-30T18:17:26.248Z,88.93
2023-03-30T18:19:56.078Z,91.51
2023-03-30T18:22:26.214Z,90.68
2023-03-30T18:24:56.201Z,92.68
2023-03-30T18:27:28.630Z,94.87
2023-03-30T18:29:58.610Z,95.66
2023-03-30T18:32:40.588Z,97.11
2023-03-30T18:35:16.779Z,97.37
2023-03-30T18:37:47.085Z,97.90
2023-03-30T18:40:22.707Z,96.54
2023-03-30T18:42:56.956Z,95.08
2023-03-30T18:45:29.235Z,95.08
2023-03-30T18:48:00.572Z,93.94
2023-03-30T18:50:39.964Z,94.40
2023-03-30T18:53:12.240Z,95.05
2023-03-30T18:55:44.016Z,95.32
2023-03-30T18:58:20.343Z,94.79
2023-03-30T19:00:51.872Z,95.61
2023-03-30T19:03:22.996Z,94.96
2023-03-30T19:05:53.348Z,94.95
2023-03-30T19:08:25.011Z,95.16
2023-03-30T19:10:57.688Z,95.16
2023-03-30T19:13:30.055Z,95.08
2023-03-30T19:16:00.416Z,96.30
2023-03-30T19:18:30.204Z,96.31
2023-03-30T19:21:00.012Z,96.80
2023-03-30T19:23:30.259Z,96.55
2023-03-30T19:26:00.111Z,96.43
2023-03-30T19:28:33.481Z,96.59
2023-03-30T19:31:07.321Z,96.60
2023-03-30T19:33:37.285Z,97.02
2023-03-30T19:36:08.465Z,97.01
2023-03-30T19:38:39.096Z,96.46
2023-03-30T19:41:11.918Z,96.79
2023-03-30T19:43:45.693Z,97.25
2023-03-30T19:46:15.536Z,96.44
2023-03-30T19:48:45.292Z,97.55
2023-03-30T19:51:15.116Z,96.20
2023-03-30T19:53:44.874Z,96.32
2023-03-30T19:56:16.142Z,97.13
2023-03-30T19:58:48.553Z,96.55
2023-03-30T20:01:18.288Z,97.20
2023-03-30T20:03:48.107Z,97.55
2023-03-30T20:06:17.831Z,97.86
2023-03-30T20:08:47.622Z,98.50
2023-03-30T20:11:17.385Z,99.42
2023-03-30T20:13:49.742Z,98.62
2023-03-30T20:16:22.680Z,98.53
2023-03-30T20:18:54.745Z,98.54
2023-03-30T20:21:26.313Z,98.05
2023-03-30T20:23:58.723Z,98.56
2023-03-30T20:26:29.416Z,99.05
2023-03-30T20:29:02.635Z,98.27
2023-03-30T20:31:32.649Z,97.82
2023-03-30T20:34:02.430Z,98.67
2023-03-30T20:36:32.360Z,99.35
2023-03-30T20:39:02.169Z,99.02
2023-03-30T20:41:38.210Z,99.71
2023-03-30T20:44:13.982Z,98.75
2023-03-30T20:46:44.646Z,100.00
2023-03-30T20:49:15.921Z,100.00
2023-03-30T20:51:46.632Z,100.00
2023-03-30T20:54:16.822Z,100.00
2023-03-30T20:56:46.656Z,100.00
2023-03-30T20:59:19.037Z,100.00
2023-03-30T21:01:50.069Z,100.00
2023-03-30T21:04:19.888Z,100.00
2023-03-30T21:06:49.815Z,100.00
2023-03-30T21:09:20.961Z,100.00
2023-03-30T21:11:50.833Z,100.00
2023-03-30T21:14:24.233Z,100.00
2023-03-30T21:16:54.018Z,100.00
2023-03-30T21:19:23.929Z,100.00
2023-03-30T21:21:53.691Z,100.00
2023-03-30T21:24:23.444Z,100.00
2023-03-30T21:26:53.225Z,100.00
2023-03-30T21:29:26.161Z,100.00
2023-03-30T21:31:57.880Z,100.00
2023-03-30T21:34:27.558Z,100.00
2023-03-30T21:36:57.512Z,100.00
2023-03-30T21:39:27.408Z,100.00
2023-03-30T21:41:57.143Z,100.00
2023-03-30T21:44:29.458Z,100.00
2023-03-30T21:46:59.217Z,100.00
2023-03-30T21:49:28.943Z,100.00
2023-03-30T21:51:58.719Z,100.00
2023-03-30T21:54:28.424Z,100.00
2023-03-30T21:56:58.142Z,100.00
2023-03-30T21:59:30.646Z,100.00
2023-03-30T22:02:00.512Z,100.00
2023-03-30T22:04:30.288Z,100.00
2023-03-30T22:07:00.027Z,100.00
2023-03-30T22:09:29.769Z,100.00
2023-03-30T22:11:59.494Z,100.00
2023-03-30T22:14:31.872Z,100.00
2023-03-30T22:17:01.672Z,100.00
2023-03-30T22:19:32.161Z,100.00
2023-03-30T22:22:01.888Z,100.00
2023-03-30T22:24:31.755Z,100.00
2023-03-30T22:27:01.480Z,100.00
2023-03-30T22:29:33.916Z,100.00
2023-03-30T22:32:06.630Z,100.00
2023-03-30T22:34:38.344Z,100.00
2023-03-30T22:37:08.086Z,100.00
2023-03-30T22:39:39.135Z,100.00
2023-03-30T22:42:09.007Z,100.00
2023-03-30T22:44:41.421Z,100.00
2023-03-30T22:47:11.481Z,100.00
2023-03-30T22:49:41.937Z,100.00
2023-03-30T22:52:11.712Z,100.00
2023-03-30T22:54:41.479Z,100.00
2023-03-30T22:57:11.480Z,100.00
2023-03-30T22:59:44.490Z,100.00
2023-03-30T23:02:14.212Z,100.00
2023-03-30T23:04:44.238Z,100.00
2023-03-30T23:07:14.325Z,100.00
2023-03-30T23:09:47.596Z,100.00
2023-03-30T23:12:17.634Z,100.00
2023-03-30T23:14:49.938Z,100.00
2023-03-30T23:17:19.682Z,100.00
2023-03-30T23:19:50.054Z,100.00
2023-03-30T23:22:19.759Z,100.00
2023-03-30T23:24:49.534Z,100.00
2023-03-30T23:27:19.446Z,100.00
2023-03-30T23:29:52.898Z,100.00
2023-03-30T23:32:22.614Z,99.95
2023-03-30T23:34:52.389Z,99.98
2023-03-30T23:37:22.134Z,99.47
2023-03-30T23:39:51.955Z,99.76
2023-03-30T23:42:22.808Z,99.82
2023-03-30T23:44:55.350Z,99.82
2023-03-30T23:47:25.192Z,99.25
2023-03-30T23:49:55.020Z,98.09
2023-03-30T23:52:24.725Z,99.13
2023-03-30T23:54:54.759Z,99.15
2023-03-30T23:57:24.507Z,99.40
2023-03-30T23:59:56.927Z,99.26
